Weather observations for the past three days for
Lynchburg, Lynchburg Regional Airport
Imperial (Metric)
Date Time (edt) Wind (mph) Vis. (mi.) Weather Sky Cond. Temperature (ºF) Relative Humidity Wind Chill (°F) Heat Index (°F) Pressure Precipitation (in)
Air Dwpt 6 hour altimeter (in) sea level (mb) 1 hr 3 hr 6 hr
Max. Min.
04 20:54 S 6 10.00 Fair CLR 66 46.9 50% 29.9 1011.9
04 19:54 S 3 10.00 Fair CLR 69.1 46.9 75.9 69.1 45% 29.89 1011.6
04 18:54 SW 6 10.00 Fair CLR 73.9 46 37% 29.89 1011.6
04 17:54 S 10 10.00 Partly Cloudy SCT120 73 45 37% 29.9 1012.1
04 16:54 SW 10 10.00 Fair CLR 73.9 44.1 34% 29.89 1011.7
04 15:54 S 14 G 24 10.00 Fair CLR 75 43 32% 77 29.89 1011.8
04 14:54 Vrbl 6 G 18 10.00 Partly Cloudy SCT075 73.9 42.1 32% 29.92 1012.6
04 13:54 W 9 10.00 Fair CLR 73 41 73.9 52 32% 29.95 1013.5
04 12:54 Vrbl 6 10.00 Fair CLR 70 39.9 34% 29.97 1014.5
04 11:54 W 9 10.00 Fair CLR 66.9 37.9 35% 29.99 1015.2
04 10:54 SW 6 10.00 Fair CLR 64.9 39 39% 30.01 1015.9
04 09:54 S 8 10.00 Fair CLR 62.1 37 40% 30 1015.7
04 08:54 SW 6 10.00 Fair CLR 60.1 37 42% 30.01 1016.0
04 07:54 S 3 10.00 A Few Clouds FEW120 52 37.9 52 46 59% 30.01 1015.9
04 06:54 S 3 10.00 Overcast OVC110 48 37.9 68% 30.01 1016.0
04 05:54 SW 3 10.00 Mostly Cloudy BKN110 48 35.1 61% 30.01 1015.8
04 04:54 Calm 10.00 A Few Clouds FEW110 46.9 36 66% 30.01 1015.8
04 03:54 Calm 10.00 Overcast SCT075 OVC110 48 35.1 61% 30.01 1015.8
04 02:54 Calm 10.00 Overcast OVC085 48 34 58% 30.01 1016.1
04 01:54 Calm 10.00 Overcast OVC085 48 36 54 42.1 63% 30.02 1016.2
04 00:54 Calm 10.00 Mostly Cloudy BKN100 46 35.1 66% 30.01 1016.0
03 23:54 Calm 10.00 A Few Clouds FEW100 43 33.1 68% 30.01 1016.1
03 22:54 Calm 10.00 Mostly Cloudy BKN120 44.1 33.1 65% 30.01 1016.3
03 21:54 Calm 10.00 Fair CLR 46.9 30.9 54% 30 1015.9
03 20:54 Calm 10.00 Fair CLR 48.9 28.9 46% 29.98 1015.2
03 19:54 Calm 10.00 Fair CLR 55 30 64 55 38% 29.98 1015.3
03 18:54 Vrbl 5 10.00 Fair CLR 63 24.1 23% 29.97 1015.0
03 17:54 Vrbl 5 10.00 Fair CLR 64 24.1 22% 29.99 1015.3
03 16:54 Vrbl 5 10.00 Fair CLR 63 24.1 23% 29.99 1015.4
03 15:54 Vrbl 5 10.00 Fair CLR 62.1 24.1 23% 30.01 1016.3
03 14:54 W 12 G 23 10.00 Fair CLR 61 25 25% 30.04 1017.1
03 13:54 W 13 10.00 Fair CLR 59 26.1 59 45 28% 30.06 1018.0
03 12:54 Vrbl 6 10.00 Fair CLR 55 24.1 30% 30.08 1018.8
03 11:54 W 7 10.00 Fair CLR 55 24.1 30% 30.1 1019.5
03 10:54 N 12 G 20 10.00 Fair CLR 51.1 24.1 35% 30.11 1019.7
03 09:54 N 13 G 25 10.00 Fair CLR 48.9 21 33% 44 30.11 1019.5
03 08:54 NW 5 G 18 10.00 Fair CLR 48 21.9 36% 47 30.1 1019.1
03 07:54 Calm 10.00 Fair CLR 45 28 45 36 52% 30.08 1018.5
03 06:54 Calm 10.00 Fair CLR 37 30 76% 30.06 1018.0
03 05:54 W 5 10.00 Fair CLR 39.9 28 63% 37 30.02 1016.6
03 04:54 Calm 10.00 A Few Clouds FEW065 37.9 30 73% 30 1016.0
03 03:54 Calm 10.00 Fair CLR 37.9 28.9 70% 29.99 1015.7
03 02:54 NW 3 10.00 Fair CLR 41 28.9 62% 29.98 1015.3
03 01:54 Calm 10.00 Fair CLR 36 30 55.9 36 79% 29.98 1015.2
03 00:54 Calm 10.00 Fair CLR 39.9 28.9 65% 29.97 1014.7
02 23:54 Calm 10.00 Fair CLR 39.9 30 68% 29.96 1014.6
02 22:54 Calm 10.00 Fair CLR 42.1 30 62% 29.96 1014.4
02 21:54 Vrbl 3 10.00 Fair CLR 50 26.1 39% 29.95 1014.0
02 20:54 NW 5 10.00 Fair CLR 52 25 35% 29.93 1013.4
02 19:54 NW 6 10.00 Fair CLR 55.9 26.1 62.1 55.9 32% 29.91 1012.5
02 18:54 Vrbl 6 G 18 10.00 Partly Cloudy SCT080 59 27 29% 29.88 1011.6
02 17:54 Calm 10.00 Overcast OVC085 61 32 34% 29.86 1010.6
02 16:54 SW 5 10.00 Partly Cloudy FEW075 SCT090 61 30.9 32% 29.86 1010.6
02 15:54 Vrbl 3 10.00 Fair CLR 62.1 30.9 31% 29.87 1011.1
02 14:54 SW 6 10.00 Fair CLR 59 28.9 32% 29.89 1011.8
02 13:54 Vrbl 5 10.00 A Few Clouds FEW080 59 28 59 51.1 31% 29.91 1012.6
02 12:54 Vrbl 6 10.00 Partly Cloudy FEW075 SCT095 57.9 27 31% 29.94 1013.6
02 11:54 Vrbl 6 10.00 Mostly Cloudy BKN075 55 28 36% 29.96 1014.3
02 10:54 N 7 10.00 Partly Cloudy SCT080 54 30 40% 29.96 1014.0
02 09:54 Vrbl 7 10.00 Overcast OVC075 52 28.9 41% 29.96 1014.2
02 08:54 Vrbl 5 10.00 Overcast BKN070 OVC090 51.1 30 45% 29.95 1013.8
02 07:54 Calm 10.00 Fair CLR 51.1 30 53.1 48.9 45% 29.93 1013.1
02 06:54 Vrbl 5 10.00 Fair CLR 51.1 34 52% 29.92 1012.9
02 05:54 N 6 10.00 Fair CLR 52 36 55% 29.93 1013.0
02 04:54 Vrbl 6 10.00 Fair CLR 52 36 55% 29.92 1012.6
02 03:54 N 6 10.00 Fair CLR 53.1 37 55% 29.9 1011.9
02 02:54 Vrbl 6 10.00 Fair CLR 53.1 39.9 61% 29.89 1011.8
02 01:54 Calm 10.00 Fair CLR 48.9 45 62.1 48 86% 29.9 1012.0
02 00:54 Calm 10.00 Fair CLR 50 45 83% 29.91 1012.4
01 23:54 S 5 10.00 Fair CLR 54 45 72% 29.9 1012.3
01 22:54 S 6 10.00 Mostly Cloudy BKN100 57 45 64% 29.9 1012.1
01 21:54 S 10 10.00 Overcast OVC100 59 44.1 58% 29.88 1011.5
Date Time (edt) Wind (mph) Vis. (mi.) Weather Sky Cond. Air Dwpt Max. Min. Relative Humidity Wind Chill (°F) Heat Index (°F) altimeter (in) sea level (mb) 1 hr 3 hr 6 hr
6 hour
Temperature (ºF) Pressure Precipitation (in)